METAR AND TAF INFORMATION
METAR FOR SKRH
ADDS - METARS form results

(1458 UTC 07 August 2020)
Data provider http://aviationweather.gov/metar/data/
 
METAR text: SKRH 071400Z 11010KT 9999 SCT015 32/24 A2989
Conditions at: SKRH (RIOHACHA/ALMIRAN, CO) observed 1400 UTC 07 August 2020
Temperature: 32.0°C (90°F)
Dewpoint: 24.0°C (75°F) [RH = 63%]
Pressure (altimeter): 29.89 inches Hg (1012.3 mb)
Winds: from the ESE (110 degrees) at 12 MPH (10 knots; 5.1 m/s)
Visibility: 6 or more miles (10+ km)
Ceiling: at least 12,000 feet AGL
Clouds: scattered clouds at 1500 feet AGL
Weather: no significant weather observed at this time

 AIRPORT MAP

 RUNWAY INFORMATION
Runway 09 Runway length 5413 ft Runway width 98 ft
Runway elevation 0 ft Runway displaced threshold 0 ft Runway heading 88
Runway 27 Runway length 5413 ft Runway width 98 ft
Runway elevation 0 ft Runway displaced threshold 0 ft Runway heading 268
Runway 10 Runway length 0 ft Runway width 0 ft
Runway elevation 38 ft Runway displaced threshold 0 ft Runway heading 0
Runway 28 Runway length 0 ft Runway width 0 ft
Runway elevation 38 ft Runway displaced threshold 0 ft Runway heading 0

 AIRPORT FREQUENCIES
Type RDO Name RIOHACHA R Frequency 348.8 MHZ
Type TWR Name TWR Frequency 118.4 MHZ

 AIRPORT NEAR NAVIGATION AIDS
Type VOR-DME Name Riohacha Frequency 117100 KHZ